createdAt,value
2017-11-24T00:00:06.874Z,26.20
2017-11-24T00:02:34.388Z,23.93
2017-11-24T00:05:01.962Z,24.43
2017-11-24T00:07:29.519Z,23.60
2017-11-24T00:09:57.055Z,22.87
2017-11-24T00:12:25.360Z,23.93
2017-11-24T00:14:52.931Z,24.37
2017-11-24T00:17:20.460Z,28.17
2017-11-24T00:19:48.740Z,22.80
2017-11-24T00:22:17.088Z,27.67
2017-11-24T00:24:46.000Z,21.77
2017-11-24T00:27:14.277Z,25.60
2017-11-24T00:29:42.628Z,29.23
2017-11-24T00:32:10.150Z,23.13
2017-11-24T00:34:37.823Z,24.03
2017-11-24T00:37:05.364Z,22.07
2017-11-24T00:39:32.923Z,23.60
2017-11-24T00:42:00.823Z,24.87
2017-11-24T00:44:28.755Z,22.02
2017-11-24T00:46:56.283Z,24.00
2017-11-24T00:49:24.567Z,23.83
2017-11-24T00:51:52.883Z,23.67
2017-11-24T00:54:20.819Z,22.37
2017-11-24T00:56:48.423Z,24.73
2017-11-24T00:59:15.972Z,23.40
2017-11-24T01:01:43.539Z,22.23
2017-11-24T01:04:11.060Z,22.90
2017-11-24T01:06:39.355Z,22.00
2017-11-24T01:09:06.903Z,22.50
2017-11-24T01:11:35.184Z,21.03
2017-11-24T01:14:02.713Z,22.57
2017-11-24T01:16:30.244Z,18.10
2017-11-24T01:18:57.942Z,23.40
2017-11-24T01:21:26.281Z,23.07
2017-11-24T01:23:54.579Z,22.00
2017-11-24T01:26:22.516Z,25.73
2017-11-24T01:28:50.068Z,22.70
2017-11-24T01:31:18.180Z,24.80
2017-11-24T01:33:45.711Z,21.60
2017-11-24T01:36:13.252Z,21.20
2017-11-24T01:38:41.548Z,19.63
2017-11-24T01:41:09.063Z,23.53
2017-11-24T01:43:37.364Z,20.00
2017-11-24T01:46:04.905Z,21.40
2017-11-24T01:48:33.227Z,20.07
2017-11-24T01:51:00.775Z,20.13
2017-11-24T01:53:28.295Z,23.33
2017-11-24T01:55:56.603Z,22.77
2017-11-24T01:58:24.152Z,20.83
2017-11-24T02:00:51.667Z,20.90
2017-11-24T02:03:19.180Z,21.47
2017-11-24T02:05:46.748Z,23.40
2017-11-24T02:08:14.264Z,20.53
2017-11-24T02:10:42.539Z,20.60
2017-11-24T02:13:10.105Z,21.40
2017-11-24T02:15:38.408Z,19.87
2017-11-24T02:18:05.948Z,23.57
2017-11-24T02:20:33.511Z,22.05
2017-11-24T02:23:01.794Z,20.40
2017-11-24T02:25:30.079Z,20.80
2017-11-24T02:27:57.622Z,18.30
2017-11-24T02:30:25.900Z,20.87
2017-11-24T02:32:54.192Z,20.23
2017-11-24T02:35:21.745Z,19.33
2017-11-24T02:37:50.040Z,19.53
2017-11-24T02:40:17.586Z,24.00
2017-11-24T02:42:45.156Z,18.90
2017-11-24T02:45:12.672Z,20.60
2017-11-24T02:47:40.185Z,21.70
2017-11-24T02:50:07.760Z,18.97
2017-11-24T02:52:35.283Z,20.87
2017-11-24T02:55:02.793Z,17.40
2017-11-24T02:57:30.360Z,19.20
2017-11-24T02:59:57.895Z,20.97
2017-11-24T03:02:25.410Z,19.23
2017-11-24T03:04:53.730Z,19.43
2017-11-24T03:07:21.235Z,18.53
2017-11-24T03:09:49.552Z,21.58
2017-11-24T03:12:17.137Z,19.17
2017-11-24T03:14:44.657Z,16.20
2017-11-24T03:17:12.195Z,15.10
2017-11-24T03:19:40.520Z,17.93
2017-11-24T03:22:08.059Z,18.10
2017-11-24T03:24:35.576Z,18.70
2017-11-24T03:27:03.131Z,20.80
2017-11-24T03:29:30.651Z,21.07
2017-11-24T03:31:58.171Z,19.13
2017-11-24T03:34:26.476Z,17.00
2017-11-24T03:36:53.991Z,17.30
2017-11-24T03:39:22.271Z,16.27
2017-11-24T03:41:49.803Z,18.80
2017-11-24T03:44:17.319Z,20.17
2017-11-24T03:46:44.855Z,16.20
2017-11-24T03:49:12.799Z,19.47
2017-11-24T03:51:40.305Z,17.03
2017-11-24T03:54:07.831Z,17.43
2017-11-24T03:56:35.411Z,15.47
2017-11-24T03:59:03.693Z,19.83
2017-11-24T04:01:31.231Z,17.70
2017-11-24T04:03:58.791Z,19.20
2017-11-24T04:06:27.097Z,16.17
2017-11-24T04:08:54.634Z,16.08
2017-11-24T04:11:22.976Z,16.63
2017-11-24T04:13:50.592Z,18.53
2017-11-24T04:16:18.181Z,17.10
2017-11-24T04:18:45.728Z,18.80
2017-11-24T04:21:13.244Z,17.53
2017-11-24T04:23:41.529Z,18.35
2017-11-24T04:26:09.864Z,17.20
2017-11-24T04:28:37.399Z,18.47
2017-11-24T04:31:11.425Z,18.10
2017-11-24T04:33:40.499Z,17.90
2017-11-24T04:36:08.031Z,15.07
2017-11-24T04:38:36.391Z,18.55
2017-11-24T04:41:04.020Z,19.52
2017-11-24T04:43:31.534Z,17.33
2017-11-24T04:45:59.959Z,18.50
2017-11-24T04:48:27.483Z,16.70
2017-11-24T04:50:55.751Z,17.60
2017-11-24T04:53:24.072Z,16.13
2017-11-24T04:55:51.624Z,16.73
2017-11-24T04:58:19.143Z,17.50
2017-11-24T05:00:46.689Z,16.63
2017-11-24T05:03:14.191Z,16.53
2017-11-24T05:05:41.728Z,19.00
2017-11-24T05:08:09.687Z,18.50
2017-11-24T05:10:37.196Z,13.97
2017-11-24T05:13:04.760Z,17.10
2017-11-24T05:15:32.319Z,15.52
2017-11-24T05:17:59.844Z,15.67
2017-11-24T05:20:28.119Z,15.63
2017-11-24T05:22:56.456Z,15.65
2017-11-24T05:25:23.986Z,15.83
2017-11-24T05:27:51.506Z,15.97
2017-11-24T05:30:19.832Z,16.73
2017-11-24T05:32:47.389Z,14.00
2017-11-24T05:35:14.936Z,15.52
2017-11-24T05:37:42.920Z,13.37
2017-11-24T05:40:10.459Z,15.20
2017-11-24T05:42:37.998Z,15.07
2017-11-24T05:45:06.320Z,14.33
2017-11-24T05:47:33.860Z,12.93
2017-11-24T05:50:01.368Z,14.10
2017-11-24T05:52:28.942Z,13.65
2017-11-24T05:54:57.255Z,15.03
2017-11-24T05:57:24.792Z,14.63
2017-11-24T05:59:53.127Z,15.77
2017-11-24T06:02:20.663Z,15.80
2017-11-24T06:04:48.316Z,15.95
2017-11-24T06:07:15.908Z,16.23
2017-11-24T06:09:43.454Z,14.83
2017-11-24T06:12:10.988Z,13.70
2017-11-24T06:14:38.616Z,14.03
2017-11-24T06:17:06.243Z,13.50
2017-11-24T06:19:33.796Z,14.97
2017-11-24T06:22:01.369Z,15.50
2017-11-24T06:24:28.887Z,15.60
2017-11-24T06:26:56.456Z,15.48
2017-11-24T06:29:24.026Z,13.27
2017-11-24T06:31:51.668Z,14.13
2017-11-24T06:34:19.186Z,14.20
2017-11-24T06:36:46.758Z,14.98
2017-11-24T06:39:15.195Z,14.10
2017-11-24T06:41:42.696Z,13.37
2017-11-24T06:44:10.303Z,15.53
2017-11-24T06:46:37.839Z,14.33
2017-11-24T06:49:06.115Z,14.17
2017-11-24T06:51:34.580Z,13.93
2017-11-24T06:54:02.312Z,15.80
2017-11-24T06:56:29.819Z,14.80
2017-11-24T06:58:58.117Z,20.00
2017-11-24T07:01:25.651Z,18.15
2017-11-24T07:03:53.965Z,21.03
2017-11-24T07:06:21.502Z,21.53
2017-11-24T07:08:49.073Z,22.35
2017-11-24T07:11:16.592Z,25.05
2017-11-24T07:13:44.921Z,24.77
2017-11-24T07:16:12.472Z,23.20
2017-11-24T07:18:40.032Z,21.40
2017-11-24T07:21:07.618Z,22.13
2017-11-24T07:23:35.551Z,26.50
2017-11-24T07:26:03.099Z,22.55
2017-11-24T07:28:31.428Z,21.58
2017-11-24T07:30:58.948Z,21.23
2017-11-24T07:33:26.472Z,26.00
2017-11-24T07:35:54.048Z,22.57
2017-11-24T07:38:22.365Z,20.80
2017-11-24T07:40:49.871Z,18.80
2017-11-24T07:43:18.187Z,18.42
2017-11-24T07:45:45.719Z,24.83
2017-11-24T07:48:13.659Z,19.90
2017-11-24T07:50:41.256Z,19.40
2017-11-24T07:53:09.538Z,17.80
2017-11-24T07:55:37.047Z,21.30
2017-11-24T07:58:04.607Z,25.30
2017-11-24T08:00:32.133Z,29.53
2017-11-24T08:02:59.661Z,25.23
2017-11-24T08:05:27.999Z,20.60
2017-11-24T08:07:55.519Z,16.90
2017-11-24T08:10:23.019Z,19.00
2017-11-24T08:12:50.567Z,20.03
2017-11-24T08:15:18.075Z,15.43
2017-11-24T08:17:46.367Z,17.65
2017-11-24T08:20:13.952Z,16.97
2017-11-24T08:22:41.463Z,17.70
2017-11-24T08:25:09.747Z,21.35
2017-11-24T08:27:37.343Z,19.40
2017-11-24T08:30:04.855Z,19.65
2017-11-24T08:32:32.389Z,17.40
2017-11-24T08:34:59.959Z,17.50
2017-11-24T08:37:27.476Z,17.75
2017-11-24T08:39:54.986Z,18.62
2017-11-24T08:42:22.559Z,21.62
2017-11-24T08:44:50.103Z,15.43
2017-11-24T08:47:23.351Z,18.03
2017-11-24T08:49:50.892Z,17.47
2017-11-24T08:52:18.436Z,18.53
2017-11-24T08:54:46.772Z,16.77
2017-11-24T08:57:14.320Z,14.40
2017-11-24T08:59:41.859Z,17.70
2017-11-24T09:02:19.452Z,13.25
2017-11-24T09:04:47.975Z,16.23
2017-11-24T09:07:15.516Z,15.70
2017-11-24T09:09:43.039Z,14.45
2017-11-24T09:12:11.371Z,20.37
2017-11-24T09:14:38.885Z,25.13
2017-11-24T09:17:06.402Z,23.60
2017-11-24T09:19:35.451Z,19.63
2017-11-24T09:22:02.988Z,17.40
2017-11-24T09:24:31.650Z,16.13
2017-11-24T09:26:59.195Z,20.75
2017-11-24T09:29:26.710Z,22.67
2017-11-24T09:31:54.258Z,17.92
2017-11-24T09:34:22.559Z,17.10
2017-11-24T09:36:50.091Z,15.27
2017-11-24T09:39:18.367Z,16.13
2017-11-24T09:41:46.679Z,15.37
2017-11-24T09:44:14.245Z,16.00
2017-11-24T09:46:41.767Z,15.18
2017-11-24T09:49:10.104Z,14.30
2017-11-24T09:51:37.632Z,14.32
2017-11-24T09:54:05.164Z,20.80
2017-11-24T09:56:32.723Z,13.73
2017-11-24T09:59:01.003Z,14.07
2017-11-24T10:01:28.516Z,16.48
2017-11-24T10:03:56.116Z,17.17
2017-11-24T10:06:24.392Z,19.17
2017-11-24T10:08:52.696Z,13.32
2017-11-24T10:11:20.251Z,14.10
2017-11-24T10:13:47.759Z,15.30
2017-11-24T10:16:15.303Z,13.82
2017-11-24T10:18:42.880Z,16.87
2017-11-24T10:21:15.988Z,13.25
2017-11-24T10:23:44.304Z,13.60
2017-11-24T10:26:11.836Z,13.40
2017-11-24T10:28:40.141Z,13.83
2017-11-24T10:31:07.696Z,11.80
2017-11-24T10:33:35.231Z,14.00
2017-11-24T10:36:03.555Z,12.40
2017-11-24T10:38:31.123Z,13.20
2017-11-24T10:40:58.664Z,28.62
2017-11-24T10:43:26.186Z,21.98
2017-11-24T10:45:54.619Z,17.17
2017-11-24T10:48:22.134Z,13.67
2017-11-24T10:50:50.412Z,14.30
2017-11-24T10:53:18.824Z,15.80
2017-11-24T10:55:46.364Z,18.50
2017-11-24T10:58:14.352Z,15.02
2017-11-24T11:00:41.932Z,14.37
2017-11-24T11:03:09.473Z,14.83
2017-11-24T11:05:37.391Z,13.25
2017-11-24T11:08:04.931Z,13.77
2017-11-24T11:10:32.442Z,16.27
2017-11-24T11:12:59.963Z,15.77
2017-11-24T11:15:28.307Z,18.97
2017-11-24T11:17:55.820Z,13.52
2017-11-24T11:20:24.404Z,14.93
2017-11-24T11:22:52.730Z,14.93
2017-11-24T11:25:20.267Z,15.43
2017-11-24T11:27:47.775Z,14.87
2017-11-24T11:30:15.312Z,16.17
2017-11-24T11:32:42.853Z,16.47
2017-11-24T11:35:10.361Z,13.52
2017-11-24T11:37:37.935Z,13.70
2017-11-24T11:40:06.352Z,12.33
2017-11-24T11:42:33.891Z,13.18
2017-11-24T11:45:01.439Z,13.10
2017-11-24T11:47:28.955Z,17.50
2017-11-24T11:49:56.487Z,13.03
2017-11-24T11:52:24.049Z,14.13
2017-11-24T11:54:51.608Z,11.60
2017-11-24T11:57:19.175Z,15.13
2017-11-24T11:59:46.774Z,12.03
2017-11-24T12:02:22.272Z,13.02
2017-11-24T12:04:50.019Z,11.53
2017-11-24T12:07:17.601Z,17.13
2017-11-24T12:09:45.230Z,12.20
2017-11-24T12:12:13.540Z,12.67
2017-11-24T12:14:41.069Z,11.45
2017-11-24T12:17:09.343Z,12.20
2017-11-24T12:19:37.675Z,12.63
2017-11-24T12:22:05.185Z,14.30
2017-11-24T12:24:32.700Z,11.10
2017-11-24T12:27:00.271Z,13.37
2017-11-24T12:29:27.812Z,11.73
2017-11-24T12:31:55.321Z,11.33
2017-11-24T12:34:23.660Z,11.57
2017-11-24T12:36:51.171Z,9.85
2017-11-24T12:39:18.676Z,13.43
2017-11-24T12:41:46.248Z,12.43
2017-11-24T12:44:13.760Z,12.70
2017-11-24T12:46:41.305Z,11.50
2017-11-24T12:49:08.863Z,12.60
2017-11-24T12:51:36.411Z,14.87
2017-11-24T12:54:04.420Z,10.50
2017-11-24T12:56:31.993Z,12.60
2017-11-24T12:58:59.551Z,12.63
2017-11-24T13:01:27.113Z,12.63
2017-11-24T13:03:54.764Z,9.60
2017-11-24T13:06:22.276Z,11.30
2017-11-24T13:08:50.564Z,12.47
2017-11-24T13:11:18.098Z,14.15
2017-11-24T13:13:46.039Z,11.50
2017-11-24T13:16:13.559Z,11.73
2017-11-24T13:18:41.105Z,9.83
2017-11-24T13:21:09.424Z,9.82
2017-11-24T13:23:36.961Z,11.75
2017-11-24T13:26:04.557Z,11.83
2017-11-24T13:28:32.130Z,11.00
2017-11-24T13:30:59.676Z,10.48
2017-11-24T13:33:27.252Z,11.50
2017-11-24T13:35:55.559Z,10.15
2017-11-24T13:38:23.868Z,11.20
2017-11-24T13:40:51.423Z,10.82
2017-11-24T13:43:18.940Z,11.10
2017-11-24T13:45:46.464Z,9.90
2017-11-24T13:48:14.059Z,10.87
2017-11-24T13:50:41.630Z,10.80
2017-11-24T13:53:09.907Z,13.85
2017-11-24T13:55:38.243Z,10.45
2017-11-24T13:58:05.816Z,11.00
2017-11-24T14:00:33.344Z,9.97
2017-11-24T14:03:00.882Z,11.68
2017-11-24T14:05:28.391Z,12.87
2017-11-24T14:07:56.028Z,12.73
2017-11-24T14:10:23.598Z,12.40
2017-11-24T14:12:51.127Z,11.48
2017-11-24T14:15:18.804Z,10.40
2017-11-24T14:17:46.376Z,9.50
2017-11-24T14:20:13.929Z,9.93
2017-11-24T14:22:41.460Z,10.23
2017-11-24T14:25:09.152Z,11.40
2017-11-24T14:27:36.695Z,12.32
2017-11-24T14:30:04.267Z,14.67
2017-11-24T14:32:31.856Z,11.63
2017-11-24T14:34:59.400Z,11.60
2017-11-24T14:37:26.925Z,11.55
2017-11-24T14:39:55.215Z,10.00
2017-11-24T14:42:23.963Z,12.27
2017-11-24T14:44:52.348Z,14.30
2017-11-24T14:47:20.693Z,13.73
2017-11-24T14:49:48.233Z,12.93
2017-11-24T14:52:15.735Z,11.33
2017-11-24T14:54:43.289Z,12.93
2017-11-24T14:57:10.861Z,12.23
2017-11-24T14:59:38.396Z,11.00
2017-11-24T15:02:05.969Z,12.43
2017-11-24T15:04:33.480Z,11.40
2017-11-24T15:07:00.987Z,9.70
2017-11-24T15:09:28.561Z,11.07
2017-11-24T15:11:56.853Z,10.40
2017-11-24T15:14:25.136Z,13.50
2017-11-24T15:16:53.467Z,10.93
2017-11-24T15:19:20.996Z,10.57
2017-11-24T15:21:48.532Z,11.35
2017-11-24T15:24:16.100Z,16.50
2017-11-24T15:26:43.615Z,13.13
2017-11-24T15:29:11.545Z,9.57
2017-11-24T15:31:39.110Z,10.30
2017-11-24T15:34:06.634Z,10.15
2017-11-24T15:36:34.935Z,10.53
2017-11-24T15:39:02.522Z,12.30
2017-11-24T15:41:30.047Z,12.33
2017-11-24T15:43:57.584Z,12.30
2017-11-24T15:46:26.008Z,12.53
2017-11-24T15:48:53.580Z,12.70
2017-11-24T15:51:21.103Z,10.67
2017-11-24T15:53:48.687Z,10.70
2017-11-24T15:56:16.196Z,10.80
2017-11-24T15:58:44.496Z,12.68
2017-11-24T16:01:12.193Z,10.50
2017-11-24T16:03:39.745Z,11.87
2017-11-24T16:06:07.435Z,12.37
2017-11-24T16:08:35.063Z,11.70
2017-11-24T16:11:02.615Z,10.87
2017-11-24T16:13:30.168Z,10.27
2017-11-24T16:15:57.760Z,13.55
2017-11-24T16:18:25.295Z,14.30
2017-11-24T16:20:52.857Z,11.20
2017-11-24T16:23:20.416Z,10.57
2017-11-24T16:25:47.990Z,11.40
2017-11-24T16:28:15.573Z,10.70
2017-11-24T16:30:43.192Z,11.68
2017-11-24T16:33:10.747Z,12.52
2017-11-24T16:35:38.339Z,12.40
2017-11-24T16:38:05.911Z,13.07
2017-11-24T16:40:33.452Z,10.97
2017-11-24T16:43:00.969Z,10.85
2017-11-24T16:45:28.558Z,10.73
2017-11-24T16:47:56.129Z,12.43
2017-11-24T16:50:23.793Z,11.38
2017-11-24T16:52:51.388Z,11.30
2017-11-24T16:55:18.960Z,13.88
2017-11-24T16:57:46.484Z,11.60
2017-11-24T17:00:14.064Z,12.37
2017-11-24T17:02:41.584Z,12.20
2017-11-24T17:05:09.116Z,12.53
2017-11-24T17:07:37.076Z,11.67
2017-11-24T17:10:05.387Z,11.93
2017-11-24T17:12:32.984Z,12.82
2017-11-24T17:15:01.337Z,11.15
2017-11-24T17:17:28.872Z,13.05
2017-11-24T17:19:56.411Z,13.90
2017-11-24T17:22:24.963Z,13.13
2017-11-24T17:24:52.578Z,12.77
2017-11-24T17:27:20.095Z,13.00
2017-11-24T17:29:47.668Z,14.37
2017-11-24T17:32:15.985Z,13.93
2017-11-24T17:34:43.565Z,12.23
2017-11-24T17:37:11.123Z,27.52
2017-11-24T17:39:38.685Z,12.88
2017-11-24T17:42:06.220Z,12.70
2017-11-24T17:44:33.776Z,12.88
2017-11-24T17:47:01.293Z,12.67
2017-11-24T17:49:28.835Z,12.07
2017-11-24T17:51:56.410Z,13.60
2017-11-24T17:54:23.938Z,13.67
2017-11-24T17:56:51.484Z,12.77
2017-11-24T17:59:19.080Z,11.93
2017-11-24T18:01:46.624Z,12.68
2017-11-24T18:04:14.692Z,12.57
2017-11-24T18:06:42.267Z,13.87
2017-11-24T18:09:09.781Z,13.43
2017-11-24T18:11:37.310Z,14.23
2017-11-24T18:14:05.643Z,14.43
2017-11-24T18:16:33.204Z,15.27
2017-11-24T18:19:00.764Z,15.43
2017-11-24T18:21:28.323Z,13.13
2017-11-24T18:23:55.881Z,15.47
2017-11-24T18:26:23.408Z,12.20
2017-11-24T18:28:51.794Z,12.50
2017-11-24T18:31:20.192Z,12.83
2017-11-24T18:33:47.727Z,14.82
2017-11-24T18:36:15.343Z,15.07
2017-11-24T18:38:42.896Z,13.98
2017-11-24T18:41:10.436Z,13.20
2017-11-24T18:43:38.014Z,14.95
2017-11-24T18:46:05.540Z,13.93
2017-11-24T18:48:33.092Z,14.48
2017-11-24T18:51:01.423Z,14.27
2017-11-24T18:53:28.960Z,13.00
2017-11-24T18:55:56.472Z,13.82
2017-11-24T18:58:24.772Z,12.98
2017-11-24T19:00:52.355Z,15.82
2017-11-24T19:03:19.867Z,14.10
2017-11-24T19:05:47.436Z,14.20
2017-11-24T19:08:16.266Z,12.50
2017-11-24T19:10:43.772Z,14.67
2017-11-24T19:13:11.311Z,15.83
2017-11-24T19:15:39.516Z,13.93
2017-11-24T19:18:09.889Z,13.18
2017-11-24T19:20:38.261Z,12.90
2017-11-24T19:23:07.717Z,15.20
2017-11-24T19:25:35.259Z,14.83
2017-11-24T19:28:02.824Z,13.32
2017-11-24T19:30:30.343Z,14.45
2017-11-24T19:32:57.856Z,18.58
2017-11-24T19:35:26.239Z,16.37
2017-11-24T19:37:54.571Z,15.55
2017-11-24T19:40:22.104Z,14.90
2017-11-24T19:42:49.667Z,16.17
2017-11-24T19:45:17.225Z,16.83
2017-11-24T19:47:44.772Z,20.20
2017-11-24T19:50:12.451Z,19.02
2017-11-24T19:52:39.993Z,19.30
2017-11-24T19:55:07.534Z,21.52
2017-11-24T19:57:35.525Z,28.40
2017-11-24T20:00:03.113Z,27.80
2017-11-24T20:02:30.663Z,31.83
2017-11-24T20:04:58.240Z,30.40
2017-11-24T20:07:26.184Z,37.10
2017-11-24T20:09:54.499Z,34.00
2017-11-24T20:12:22.137Z,33.10
2017-11-24T20:14:52.465Z,36.53
2017-11-24T20:19:51.863Z,37.17
2017-11-24T20:22:19.654Z,34.95
2017-11-24T20:24:47.226Z,35.53
2017-11-24T20:27:14.812Z,34.60
2017-11-24T20:29:42.412Z,36.13
2017-11-24T20:32:10.012Z,38.67
2017-11-24T20:34:37.617Z,35.92
2017-11-24T20:37:05.981Z,34.87
2017-11-24T20:39:35.204Z,37.07
2017-11-24T20:42:03.557Z,32.00
2017-11-24T20:44:31.877Z,34.00
2017-11-24T20:46:59.424Z,33.33
2017-11-24T20:49:27.029Z,35.50
2017-11-24T20:51:55.286Z,34.23
2017-11-24T20:54:22.838Z,31.57
2017-11-24T20:56:50.430Z,33.20
2017-11-24T20:59:18.015Z,34.00
2017-11-24T21:01:46.349Z,29.50
2017-11-24T21:04:13.989Z,31.95
2017-11-24T21:06:41.577Z,32.67
2017-11-24T21:09:09.154Z,32.97
2017-11-24T21:11:36.757Z,28.27
2017-11-24T21:14:04.333Z,32.40
2017-11-24T21:16:31.945Z,27.73
2017-11-24T21:18:59.572Z,31.47
2017-11-24T21:21:27.128Z,30.20
2017-11-24T21:23:54.686Z,29.12
2017-11-24T21:26:22.289Z,33.53
2017-11-24T21:28:49.914Z,31.80
2017-11-24T21:31:17.473Z,28.80
2017-11-24T21:33:45.042Z,29.95
2017-11-24T21:36:12.613Z,28.62
2017-11-24T21:38:40.938Z,28.58
2017-11-24T21:41:08.512Z,28.67
2017-11-24T21:43:36.119Z,28.55
2017-11-24T21:46:03.711Z,28.50
2017-11-24T21:48:32.099Z,27.90
2017-11-24T21:50:59.623Z,27.50
2017-11-24T21:53:27.190Z,26.87
2017-11-24T21:55:54.767Z,32.15
2017-11-24T21:58:23.090Z,28.50
2017-11-24T22:00:50.670Z,30.55
2017-11-24T22:03:18.263Z,26.93
2017-11-24T22:05:46.585Z,25.57
2017-11-24T22:08:14.139Z,25.40
2017-11-24T22:10:41.738Z,31.47
2017-11-24T22:13:09.301Z,28.10
2017-11-24T22:15:36.845Z,26.83
2017-11-24T22:18:04.411Z,24.57
2017-11-24T22:20:31.952Z,23.63
2017-11-24T22:22:59.489Z,27.10
2017-11-24T22:25:27.055Z,26.43
2017-11-24T22:27:54.615Z,25.45
2017-11-24T22:30:22.191Z,27.30
2017-11-24T22:32:49.753Z,27.63
2017-11-24T22:35:17.276Z,27.15
2017-11-24T22:37:45.578Z,27.23
2017-11-24T22:40:13.148Z,27.23
2017-11-24T22:42:40.672Z,24.73
2017-11-24T22:45:08.978Z,27.83
2017-11-24T22:47:36.565Z,27.60
2017-11-24T22:50:04.108Z,26.80
2017-11-24T22:52:31.676Z,25.50
2017-11-24T22:54:59.241Z,23.95
2017-11-24T22:57:26.800Z,27.10
2017-11-24T22:59:54.335Z,25.67
2017-11-24T23:02:21.904Z,22.73
2017-11-24T23:04:49.457Z,24.37
2017-11-24T23:07:16.999Z,26.37
2017-11-24T23:09:44.554Z,25.80
2017-11-24T23:12:12.119Z,23.77
2017-11-24T23:14:39.656Z,25.95
2017-11-24T23:17:07.591Z,27.33
2017-11-24T23:19:35.134Z,26.57
2017-11-24T23:22:03.043Z,25.13
2017-11-24T23:24:31.257Z,25.40
2017-11-24T23:26:59.308Z,24.48
2017-11-24T23:29:28.200Z,26.52
2017-11-24T23:31:57.000Z,23.08
2017-11-24T23:34:24.520Z,23.62
2017-11-24T23:36:52.868Z,23.90
2017-11-24T23:39:20.408Z,25.13
2017-11-24T23:41:47.927Z,27.10
2017-11-24T23:44:15.437Z,24.67
2017-11-24T23:46:42.992Z,25.00
2017-11-24T23:49:10.503Z,24.47
2017-11-24T23:51:38.034Z,27.97
2017-11-24T23:54:05.591Z,25.37
2017-11-24T23:56:33.123Z,27.50
2017-11-24T23:59:00.643Z,24.60
